Time;durP1;ratioP1;P1;durP2;ratioP2;P2;SDS_P1;SDS_P2;PMS_P1;PMS_P2;Temp;Humidity;BMP_temperature;BMP_pressure;BME280_temperature;BME280_humidity;BME280_pressure;Samples;Min_cycle;Max_cycle;Signal;HPM_P1;HPM_P2
2022/04/14 00:00:10;;;;;;;18.35;6.63;;;;;;;;;;5092638;28;20748;-18
2022/04/14 00:02:38;;;;;;;13.05;6.38;;;;;;;;;;5093151;28;20715;-17
2022/04/14 00:05:06;;;;;;;10.57;6.10;;;;;;;;;;5092625;28;20228;-18
2022/04/14 00:07:33;;;;;;;8.65;5.68;;;;;;;;;;5102771;28;20238;-17
2022/04/14 00:10:01;;;;;;;7.53;5.90;;;;;;;;;;5088054;28;20860;-17
2022/04/14 00:12:28;;;;;;;9.68;5.32;;;;;;;;;;5098738;28;20239;-19
2022/04/14 00:14:55;;;;;;;7.10;5.80;;;;;;;;;;5084952;28;20244;-19
2022/04/14 00:17:23;;;;;;;7.75;5.78;;;;;;;;;;5089294;28;20239;-17
2022/04/14 00:19:52;;;;;;;10.13;6.55;;;;;;;;;;5086404;28;20443;-17
2022/04/14 00:22:20;;;;;;;14.02;6.97;;;;;;;;;;5098045;28;20240;-19
2022/04/14 00:24:47;;;;;;;36.13;8.10;;;;;;;;;;5094495;28;20224;-18
2022/04/14 00:27:17;;;;;;;17.95;5.78;;;;;;;;;;5098790;28;20232;-18
2022/04/14 00:29:44;;;;;;;28.83;6.75;;;;;;;;;;5098952;28;20240;-18
2022/04/14 00:32:12;;;;;;;12.93;5.78;;;;;;;;;;5097043;28;20738;-18
2022/04/14 00:34:39;;;;;;;13.48;5.53;;;;;;;;;;5094262;28;20239;-18
2022/04/14 00:37:09;;;;;;;16.52;5.80;;;;;;;;;;5098832;28;20241;-18
2022/04/14 00:39:36;;;;;;;13.88;5.63;;;;;;;;;;5106261;28;20231;-19
2022/04/14 00:42:08;;;;;;;24.33;5.80;;;;;;;;;;5107033;28;20235;-17
2022/04/14 00:44:36;;;;;;;21.73;4.90;;;;;;;;;;5105479;28;20259;-19
2022/04/14 00:47:03;;;;;;;13.98;5.28;;;;;;;;;;5111179;28;20236;-18
2022/04/14 00:49:30;;;;;;;13.05;5.30;;;;;;;;;;5104085;28;20236;-19
2022/04/14 00:51:58;;;;;;;8.45;5.05;;;;;;;;;;5112082;28;20689;-18
2022/04/14 00:54:28;;;;;;;11.63;5.15;;;;;;;;;;5103135;28;20236;-18
2022/04/14 00:56:56;;;;;;;12.07;5.45;;;;;;;;;;5111863;28;20235;-18
2022/04/14 00:59:23;;;;;;;13.27;5.07;;;;;;;;;;5111680;28;20224;-18
2022/04/14 01:01:50;;;;;;;10.27;5.20;;;;;;;;;;5107494;28;20224;-18
2022/04/14 01:04:18;;;;;;;15.70;6.43;;;;;;;;;;5103394;28;20232;-18
2022/04/14 01:06:45;;;;;;;10.55;4.80;;;;;;;;;;5111085;28;20232;-18
2022/04/14 01:09:19;;;;;;;10.02;5.00;;;;;;;;;;5112155;28;21114;-18
2022/04/14 01:11:49;;;;;;;18.90;5.32;;;;;;;;;;5111773;28;20234;-18
2022/04/14 01:14:20;;;;;;;10.18;5.25;;;;;;;;;;5106074;28;20276;-18
2022/04/14 01:16:47;;;;;;;14.63;5.70;;;;;;;;;;5109810;28;20236;-18
2022/04/14 01:19:15;;;;;;;8.57;4.72;;;;;;;;;;5111548;28;20235;-18
2022/04/14 01:21:42;;;;;;;8.57;4.97;;;;;;;;;;5111508;28;21181;-18
2022/04/14 01:24:11;;;;;;;8.25;5.55;;;;;;;;;;5090621;28;20232;-18
2022/04/14 01:26:38;;;;;;;15.25;5.38;;;;;;;;;;5102703;28;20228;-18
2022/04/14 01:29:05;;;;;;;9.23;6.15;;;;;;;;;;5105718;28;20311;-18
2022/04/14 01:31:33;;;;;;;9.65;5.45;;;;;;;;;;5099744;27;21049;-18
2022/04/14 01:34:00;;;;;;;10.02;5.55;;;;;;;;;;5099547;28;20243;-19
2022/04/14 01:36:27;;;;;;;8.80;5.50;;;;;;;;;;5113941;28;20232;-19
2022/04/14 01:38:55;;;;;;;12.65;6.50;;;;;;;;;;5114794;28;20314;-18
2022/04/14 01:41:23;;;;;;;10.98;5.55;;;;;;;;;;5115071;28;20228;-19
2022/04/14 01:43:51;;;;;;;9.02;5.68;;;;;;;;;;5111549;28;20254;-19
2022/04/14 01:46:18;;;;;;;11.52;5.57;;;;;;;;;;5113315;28;20254;-18
2022/04/14 01:48:47;;;;;;;7.25;5.30;;;;;;;;;;5114863;28;20235;-19
2022/04/14 01:51:14;;;;;;;8.10;5.35;;;;;;;;;;5114800;28;20236;-19
2022/04/14 01:53:41;;;;;;;10.02;5.35;;;;;;;;;;5112579;28;20228;-18
2022/04/14 01:56:08;;;;;;;9.98;5.43;;;;;;;;;;5113677;28;20235;-18
2022/04/14 01:58:37;;;;;;;7.25;5.35;;;;;;;;;;5111591;28;20228;-18
2022/04/14 02:01:04;;;;;;;8.40;4.97;;;;;;;;;;5097189;28;20236;-19
2022/04/14 02:03:32;;;;;;;10.82;5.38;;;;;;;;;;5112503;28;21032;-19
2022/04/14 02:05:59;;;;;;;8.93;5.40;;;;;;;;;;5106248;28;20232;-19
2022/04/14 02:08:26;;;;;;;11.73;5.35;;;;;;;;;;5109858;28;20224;-19
2022/04/14 02:10:54;;;;;;;8.80;5.85;;;;;;;;;;5114641;28;20236;-19
2022/04/14 02:13:21;;;;;;;8.27;5.18;;;;;;;;;;5106349;28;20969;-19
2022/04/14 02:15:50;;;;;;;8.52;5.30;;;;;;;;;;5110223;28;20245;-19
2022/04/14 02:18:17;;;;;;;8.32;5.93;;;;;;;;;;5112141;28;20228;-18
2022/04/14 02:20:44;;;;;;;7.32;5.72;;;;;;;;;;5110183;28;20236;-19
2022/04/14 02:23:12;;;;;;;6.57;5.32;;;;;;;;;;5105985;28;20262;-18
2022/04/14 02:25:39;;;;;;;7.28;5.25;;;;;;;;;;5114966;28;20977;-18
2022/04/14 02:28:06;;;;;;;7.90;6.28;;;;;;;;;;5109338;28;20729;-18
2022/04/14 02:30:34;;;;;;;6.50;5.53;;;;;;;;;;5109477;28;20236;-18
2022/04/14 02:33:02;;;;;;;10.15;5.63;;;;;;;;;;5110873;28;20231;-18
2022/04/14 02:35:30;;;;;;;8.23;6.25;;;;;;;;;;5115190;28;20228;-18
2022/04/14 02:37:58;;;;;;;6.65;5.43;;;;;;;;;;5113979;28;20695;-18
2022/04/14 02:40:25;;;;;;;7.63;5.68;;;;;;;;;;5110213;28;20220;-18
2022/04/14 02:42:53;;;;;;;7.10;5.78;;;;;;;;;;5102052;27;20251;-18
2022/04/14 02:45:20;;;;;;;7.90;5.55;;;;;;;;;;5111268;28;20231;-18
2022/04/14 02:47:48;;;;;;;6.97;5.32;;;;;;;;;;5112493;28;20793;-18
2022/04/14 02:50:16;;;;;;;5.97;5.32;;;;;;;;;;5112459;28;20232;-18
2022/04/14 02:52:44;;;;;;;5.85;5.20;;;;;;;;;;5102137;28;20228;-18
2022/04/14 02:55:11;;;;;;;5.82;5.22;;;;;;;;;;5111219;28;20240;-18
2022/04/14 02:57:38;;;;;;;6.82;5.65;;;;;;;;;;5114027;28;20699;-18
2022/04/14 03:00:09;;;;;;;9.07;5.80;;;;;;;;;;5113241;28;20714;-19
2022/04/14 03:02:36;;;;;;;7.10;5.50;;;;;;;;;;5104018;28;20687;-18
2022/04/14 03:05:04;;;;;;;6.90;6.03;;;;;;;;;;5106237;28;20232;-18
2022/04/14 03:07:33;;;;;;;6.88;5.60;;;;;;;;;;5105597;28;20225;-18
2022/04/14 03:10:00;;;;;;;8.20;6.32;;;;;;;;;;5104694;28;20243;-18
2022/04/14 03:12:27;;;;;;;7.82;5.72;;;;;;;;;;5109048;28;20236;-18
2022/04/14 03:14:55;;;;;;;7.57;6.22;;;;;;;;;;5112024;28;20236;-18
2022/04/14 03:17:22;;;;;;;8.27;6.47;;;;;;;;;;5113508;28;20235;-18
2022/04/14 03:19:49;;;;;;;9.45;6.65;;;;;;;;;;5113922;28;20279;-18
2022/04/14 03:22:16;;;;;;;9.00;6.82;;;;;;;;;;5106186;28;20248;-18
2022/04/14 03:24:45;;;;;;;7.18;6.25;;;;;;;;;;5109083;28;20246;-18
2022/04/14 03:27:12;;;;;;;15.27;6.43;;;;;;;;;;5112909;28;20224;-18
2022/04/14 03:29:41;;;;;;;9.27;6.15;;;;;;;;;;5113337;28;20224;-18
2022/04/14 03:32:08;;;;;;;8.38;6.82;;;;;;;;;;5098789;28;20248;-18
2022/04/14 03:34:36;;;;;;;7.78;6.10;;;;;;;;;;5112401;28;20228;-18
2022/04/14 03:37:03;;;;;;;8.85;6.75;;;;;;;;;;5108643;28;20236;-18
2022/04/14 03:39:31;;;;;;;8.15;6.25;;;;;;;;;;5112767;28;20730;-18
2022/04/14 03:41:59;;;;;;;10.07;7.40;;;;;;;;;;5109822;28;20224;-18
2022/04/14 03:44:26;;;;;;;8.45;7.28;;;;;;;;;;5097702;28;20230;-18
2022/04/14 03:46:54;;;;;;;11.25;7.60;;;;;;;;;;5108551;28;20966;-18
2022/04/14 03:49:21;;;;;;;9.07;6.80;;;;;;;;;;5112852;28;20285;-18
2022/04/14 03:51:49;;;;;;;8.43;7.00;;;;;;;;;;5109494;28;20721;-18
2022/04/14 03:54:16;;;;;;;12.35;7.22;;;;;;;;;;5112468;27;20216;-18
2022/04/14 03:56:46;;;;;;;11.63;7.45;;;;;;;;;;5112826;28;20247;-18
2022/04/14 03:59:14;;;;;;;8.63;7.35;;;;;;;;;;5107501;28;20228;-18
2022/04/14 04:01:42;;;;;;;9.35;7.90;;;;;;;;;;5109465;28;20231;-18
2022/04/14 04:04:09;;;;;;;9.38;7.50;;;;;;;;;;5112982;28;20236;-18
2022/04/14 04:06:36;;;;;;;8.40;7.28;;;;;;;;;;5112558;28;20216;-18
2022/04/14 04:09:04;;;;;;;8.00;7.18;;;;;;;;;;5107914;28;20297;-18
2022/04/14 04:11:31;;;;;;;8.80;7.90;;;;;;;;;;5100260;28;21008;-18
2022/04/14 04:13:58;;;;;;;8.48;7.10;;;;;;;;;;5112518;28;20231;-18
2022/04/14 04:16:27;;;;;;;8.73;7.68;;;;;;;;;;5112473;28;20613;-18
2022/04/14 04:18:55;;;;;;;8.23;7.35;;;;;;;;;;5112584;28;20667;-18
2022/04/14 04:21:22;;;;;;;8.60;7.70;;;;;;;;;;5104403;28;20235;-18
2022/04/14 04:23:49;;;;;;;10.07;7.45;;;;;;;;;;5111730;28;20236;-18
2022/04/14 04:26:17;;;;;;;8.77;7.72;;;;;;;;;;5112016;28;21029;-18
2022/04/14 04:28:44;;;;;;;8.15;7.35;;;;;;;;;;5112562;28;20236;-18
2022/04/14 04:31:12;;;;;;;8.52;7.63;;;;;;;;;;5105033;28;20224;-18
2022/04/14 04:33:40;;;;;;;9.02;8.13;;;;;;;;;;5112018;28;21031;-18
2022/04/14 04:36:08;;;;;;;9.45;8.52;;;;;;;;;;5111929;28;20247;-18
2022/04/14 04:38:35;;;;;;;8.82;7.95;;;;;;;;;;5112310;28;20238;-18
2022/04/14 04:41:02;;;;;;;10.23;8.82;;;;;;;;;;5110098;28;20737;-18
2022/04/14 04:43:30;;;;;;;9.10;8.20;;;;;;;;;;5107174;28;20235;-18
2022/04/14 04:45:57;;;;;;;8.18;7.38;;;;;;;;;;5107948;28;20231;-18
2022/04/14 04:48:24;;;;;;;9.20;8.30;;;;;;;;;;5111218;28;21080;-18
2022/04/14 04:50:53;;;;;;;9.05;8.20;;;;;;;;;;5112017;28;20231;-18
2022/04/14 04:53:20;;;;;;;8.35;7.55;;;;;;;;;;5106044;28;21550;-18
2022/04/14 04:55:47;;;;;;;8.13;7.32;;;;;;;;;;5112003;28;20240;-18
2022/04/14 04:58:15;;;;;;;8.35;7.55;;;;;;;;;;5111960;28;20230;-18
2022/04/14 05:00:44;;;;;;;9.18;7.97;;;;;;;;;;5107458;28;20225;-18
2022/04/14 05:03:12;;;;;;;8.00;7.28;;;;;;;;;;5105715;28;20243;-18
2022/04/14 05:05:40;;;;;;;8.98;7.95;;;;;;;;;;5097890;28;20228;-18
2022/04/14 05:08:08;;;;;;;9.40;8.40;;;;;;;;;;5111622;28;20256;-18
2022/04/14 05:10:36;;;;;;;8.35;7.55;;;;;;;;;;5112065;28;20232;-18
2022/04/14 05:13:04;;;;;;;9.25;8.13;;;;;;;;;;5110971;28;20254;-18
2022/04/14 05:15:32;;;;;;;9.02;8.20;;;;;;;;;;5088441;28;20239;-18
2022/04/14 05:17:59;;;;;;;8.88;7.68;;;;;;;;;;5094987;28;20223;-18
2022/04/14 05:20:26;;;;;;;9.05;7.80;;;;;;;;;;5111638;28;21003;-18
2022/04/14 05:22:54;;;;;;;8.57;7.75;;;;;;;;;;5111004;28;20244;-18
2022/04/14 05:25:22;;;;;;;9.40;8.38;;;;;;;;;;5102302;28;20228;-18
2022/04/14 05:27:50;;;;;;;8.98;7.53;;;;;;;;;;5109946;28;20220;-18
2022/04/14 05:30:17;;;;;;;9.02;8.10;;;;;;;;;;5109803;28;20228;-18
2022/04/14 05:32:44;;;;;;;8.80;7.95;;;;;;;;;;5109168;28;20224;-18
2022/04/14 05:35:12;;;;;;;8.38;7.57;;;;;;;;;;5108084;28;20614;-18
2022/04/14 05:37:39;;;;;;;8.45;7.65;;;;;;;;;;5109005;28;20236;-18
2022/04/14 05:40:08;;;;;;;8.95;8.13;;;;;;;;;;5111351;28;20232;-18
2022/04/14 05:42:36;;;;;;;10.68;7.75;;;;;;;;;;5111115;28;20227;-18
2022/04/14 05:45:04;;;;;;;8.60;7.80;;;;;;;;;;5107855;28;20235;-18
2022/04/14 05:47:31;;;;;;;8.25;7.47;;;;;;;;;;5099257;28;20228;-18
2022/04/14 05:49:59;;;;;;;9.05;7.72;;;;;;;;;;5111282;28;20239;-18
2022/04/14 05:52:26;;;;;;;8.00;7.25;;;;;;;;;;5111576;28;20259;-18
2022/04/14 05:54:53;;;;;;;8.38;7.57;;;;;;;;;;5107061;28;20243;-18
2022/04/14 05:57:22;;;;;;;8.57;7.60;;;;;;;;;;5110985;28;20240;-18
2022/04/14 05:59:50;;;;;;;8.00;7.22;;;;;;;;;;5099573;28;20335;-18
2022/04/14 06:02:18;;;;;;;8.18;7.38;;;;;;;;;;5095268;28;20712;-18
2022/04/14 06:04:46;;;;;;;8.70;7.90;;;;;;;;;;5093976;28;20236;-18
2022/04/14 06:07:13;;;;;;;8.32;7.53;;;;;;;;;;5110740;28;20221;-18
2022/04/14 06:09:40;;;;;;;10.35;7.60;;;;;;;;;;5105774;28;20244;-18
2022/04/14 06:12:08;;;;;;;8.77;7.93;;;;;;;;;;5111172;28;20335;-18
2022/04/14 06:14:48;;;;;;;8.45;7.65;;;;;;;;;;5109850;28;20232;-18
2022/04/14 06:17:16;;;;;;;8.32;7.53;;;;;;;;;;5110705;27;20239;-18
2022/04/14 06:19:44;;;;;;;10.95;7.57;;;;;;;;;;5113135;28;20255;-18
2022/04/14 06:22:11;;;;;;;13.18;7.43;;;;;;;;;;5096987;28;20244;-18
2022/04/14 06:24:39;;;;;;;14.82;7.15;;;;;;;;;;5093152;28;20893;-18
2022/04/14 06:27:06;;;;;;;10.93;7.68;;;;;;;;;;5095746;28;20258;-18
2022/04/14 06:29:34;;;;;;;13.45;7.88;;;;;;;;;;5095118;28;20233;-18
2022/04/14 06:32:01;;;;;;;11.27;7.70;;;;;;;;;;5088246;28;20224;-18
2022/04/14 06:34:30;;;;;;;10.30;7.20;;;;;;;;;;5091442;28;20228;-18
2022/04/14 06:36:57;;;;;;;11.30;7.53;;;;;;;;;;5092859;28;20241;-18
2022/04/14 06:39:24;;;;;;;11.95;7.90;;;;;;;;;;5092242;28;20224;-18
2022/04/14 06:41:51;;;;;;;10.07;7.80;;;;;;;;;;5096772;28;20749;-18
2022/04/14 06:44:19;;;;;;;11.32;8.45;;;;;;;;;;5091972;28;20232;-18
2022/04/14 06:46:46;;;;;;;10.02;8.23;;;;;;;;;;5094472;28;20614;-18
2022/04/14 06:49:13;;;;;;;11.82;8.27;;;;;;;;;;5092109;28;20236;-18
2022/04/14 06:51:42;;;;;;;14.00;9.15;;;;;;;;;;5091593;28;20235;-18
2022/04/14 06:54:09;;;;;;;10.02;8.88;;;;;;;;;;5091451;28;20221;-18
2022/04/14 06:56:36;;;;;;;11.05;9.48;;;;;;;;;;5089767;28;20240;-18
2022/04/14 06:59:04;;;;;;;12.88;9.05;;;;;;;;;;5094143;28;20220;-18
2022/04/14 07:01:31;;;;;;;14.63;9.80;;;;;;;;;;5095813;28;20232;-18
2022/04/14 07:03:59;;;;;;;13.43;10.48;;;;;;;;;;5094598;28;20266;-18
2022/04/14 07:06:26;;;;;;;11.73;10.50;;;;;;;;;;5092339;28;20943;-18
2022/04/14 07:08:56;;;;;;;14.18;10.60;;;;;;;;;;5097161;28;20236;-18
2022/04/14 07:11:23;;;;;;;11.00;9.52;;;;;;;;;;5095993;28;20229;-18
2022/04/14 07:13:50;;;;;;;12.40;10.10;;;;;;;;;;5097424;28;20721;-18
2022/04/14 07:16:18;;;;;;;11.85;9.88;;;;;;;;;;5092062;28;20303;-18
2022/04/14 07:18:45;;;;;;;27.60;10.40;;;;;;;;;;5108831;28;20244;-18
2022/04/14 07:21:12;;;;;;;35.83;10.93;;;;;;;;;;5111858;28;20267;-18
2022/04/14 07:23:39;;;;;;;31.88;11.30;;;;;;;;;;5112818;28;20246;-18
2022/04/14 07:26:08;;;;;;;23.08;10.77;;;;;;;;;;5093085;28;20717;-18
2022/04/14 07:28:35;;;;;;;21.50;11.23;;;;;;;;;;5093302;28;20233;-18
2022/04/14 07:31:03;;;;;;;23.52;10.63;;;;;;;;;;5105087;28;21080;-18
2022/04/14 07:33:30;;;;;;;22.02;10.30;;;;;;;;;;5105586;28;20221;-19
2022/04/14 07:35:57;;;;;;;18.83;10.38;;;;;;;;;;5097839;28;20266;-18
2022/04/14 07:38:38;;;;;;;15.65;10.52;;;;;;;;;;5087007;28;20253;-19
2022/04/14 07:41:05;;;;;;;19.75;11.10;;;;;;;;;;5101829;28;21102;-18
2022/04/14 07:43:34;;;;;;;16.85;11.13;;;;;;;;;;5095799;28;20231;-18
2022/04/14 07:46:03;;;;;;;17.02;10.80;;;;;;;;;;5103041;28;20973;-19
2022/04/14 07:48:30;;;;;;;18.27;11.15;;;;;;;;;;5091729;28;21195;-18
2022/04/14 07:50:59;;;;;;;18.15;10.80;;;;;;;;;;5092975;28;20232;-18
2022/04/14 07:53:27;;;;;;;24.25;12.93;;;;;;;;;;5106011;28;20429;-18
2022/04/14 07:55:54;;;;;;;19.50;12.77;;;;;;;;;;5097574;28;20228;-19
2022/04/14 07:58:21;;;;;;;25.73;11.20;;;;;;;;;;5091982;28;20244;-19
2022/04/14 08:00:51;;;;;;;17.15;11.75;;;;;;;;;;5085007;28;20431;-20
2022/04/14 08:03:18;;;;;;;15.77;10.18;;;;;;;;;;5089951;28;20233;-19
2022/04/14 08:05:46;;;;;;;33.17;12.75;;;;;;;;;;5088027;28;20895;-19
2022/04/14 08:08:14;;;;;;;18.38;11.40;;;;;;;;;;5085125;28;21520;-19
2022/04/14 08:10:42;;;;;;;17.52;11.35;;;;;;;;;;5068410;28;20221;-18
2022/04/14 08:13:09;;;;;;;26.65;13.05;;;;;;;;;;5084873;28;20235;-19
2022/04/14 08:15:39;;;;;;;26.33;14.47;;;;;;;;;;5091428;28;20412;-18
2022/04/14 08:18:07;;;;;;;15.50;11.30;;;;;;;;;;5097169;28;20557;-19
2022/04/14 08:20:35;;;;;;;21.00;11.57;;;;;;;;;;5103047;28;20282;-18
2022/04/14 08:23:03;;;;;;;22.08;12.82;;;;;;;;;;5107418;28;20247;-19
2022/04/14 08:25:32;;;;;;;16.63;12.55;;;;;;;;;;5096653;28;20224;-19
2022/04/14 08:28:00;;;;;;;19.95;12.88;;;;;;;;;;5104554;28;20232;-19
2022/04/14 08:30:28;;;;;;;16.13;12.57;;;;;;;;;;5106106;28;20228;-19
2022/04/14 08:32:55;;;;;;;18.23;11.82;;;;;;;;;;5103304;28;20220;-18
2022/04/14 08:35:25;;;;;;;20.67;12.73;;;;;;;;;;5110982;28;20228;-19
2022/04/14 08:37:52;;;;;;;18.95;11.88;;;;;;;;;;5111607;28;20232;-19
2022/04/14 08:40:21;;;;;;;16.70;12.40;;;;;;;;;;5109521;28;20254;-19
2022/04/14 08:42:51;;;;;;;16.65;12.88;;;;;;;;;;5110491;28;20765;-19
2022/04/14 08:45:19;;;;;;;14.73;12.02;;;;;;;;;;5107285;28;20236;-18
2022/04/14 08:47:46;;;;;;;15.38;12.05;;;;;;;;;;5111858;28;20232;-18
2022/04/14 08:50:13;;;;;;;15.48;12.40;;;;;;;;;;5111924;28;20234;-18
2022/04/14 08:52:42;;;;;;;16.52;11.07;;;;;;;;;;5112003;28;20224;-18
2022/04/14 08:55:11;;;;;;;14.52;11.05;;;;;;;;;;5106837;28;20652;-18
2022/04/14 08:57:38;;;;;;;17.70;11.35;;;;;;;;;;5112029;28;20224;-18
2022/04/14 09:00:06;;;;;;;15.15;10.80;;;;;;;;;;5111923;28;20730;-18
2022/04/14 09:02:34;;;;;;;17.65;10.18;;;;;;;;;;5107521;28;20234;-18
2022/04/14 09:05:01;;;;;;;16.00;10.50;;;;;;;;;;5104314;28;20232;-18
2022/04/14 09:07:29;;;;;;;14.80;10.38;;;;;;;;;;5107424;28;20349;-18
2022/04/14 09:09:57;;;;;;;11.88;9.75;;;;;;;;;;5111652;28;20228;-18
2022/04/14 09:12:25;;;;;;;13.00;9.90;;;;;;;;;;5111744;28;20319;-18
2022/04/14 09:14:52;;;;;;;14.30;10.60;;;;;;;;;;5108718;28;20228;-18
2022/04/14 09:17:19;;;;;;;13.45;10.25;;;;;;;;;;5106947;28;20238;-18
2022/04/14 09:19:48;;;;;;;14.07;9.63;;;;;;;;;;5111289;28;20236;-18
2022/04/14 09:22:15;;;;;;;12.05;9.43;;;;;;;;;;5110827;27;21078;-18
2022/04/14 09:24:43;;;;;;;14.02;10.32;;;;;;;;;;5111808;28;20227;-18
2022/04/14 09:27:25;;;;;;;11.93;9.38;;;;;;;;;;5105637;28;20228;-18
2022/04/14 09:29:52;;;;;;;14.25;10.07;;;;;;;;;;5110874;28;20232;-19
2022/04/14 09:32:26;;;;;;;12.00;9.40;;;;;;;;;;5107355;28;20227;-18
2022/04/14 09:34:54;;;;;;;11.20;9.23;;;;;;;;;;5111183;28;20767;-19
2022/04/14 09:37:22;;;;;;;11.25;8.80;;;;;;;;;;5109865;28;20270;-18
2022/04/14 09:39:51;;;;;;;15.55;9.73;;;;;;;;;;5108694;28;20247;-18
2022/04/14 09:42:21;;;;;;;11.93;8.68;;;;;;;;;;5111289;28;20220;-18
2022/04/14 09:44:49;;;;;;;10.50;8.77;;;;;;;;;;5110692;28;20239;-18
2022/04/14 09:47:22;;;;;;;12.65;8.95;;;;;;;;;;5111255;28;20229;-18
2022/04/14 09:49:49;;;;;;;11.93;8.27;;;;;;;;;;5104887;28;20973;-18
2022/04/14 09:52:17;;;;;;;13.65;8.57;;;;;;;;;;5111897;27;20234;-18
2022/04/14 09:54:45;;;;;;;8.88;7.97;;;;;;;;;;5114915;28;20243;-18
2022/04/14 09:57:12;;;;;;;11.55;8.43;;;;;;;;;;5114781;28;20235;-18
2022/04/14 09:59:41;;;;;;;12.02;8.32;;;;;;;;;;5114833;28;20235;-18
2022/04/14 10:02:09;;;;;;;9.80;7.72;;;;;;;;;;5106272;28;20232;-18
2022/04/14 10:04:37;;;;;;;9.70;7.93;;;;;;;;;;5114685;28;21011;-18
2022/04/14 10:07:05;;;;;;;10.57;8.43;;;;;;;;;;5114520;28;20231;-19
2022/04/14 10:09:34;;;;;;;9.20;7.03;;;;;;;;;;5113986;28;20232;-18
2022/04/14 10:12:01;;;;;;;10.18;7.65;;;;;;;;;;5102230;28;20232;-18
2022/04/14 10:14:29;;;;;;;10.52;7.35;;;;;;;;;;5111933;28;20228;-18
2022/04/14 10:17:02;;;;;;;8.68;7.40;;;;;;;;;;5114372;28;20227;-18
2022/04/14 10:19:31;;;;;;;8.82;7.15;;;;;;;;;;5106581;28;20686;-18
2022/04/14 10:21:59;;;;;;;9.20;7.47;;;;;;;;;;5113868;28;20228;-18
2022/04/14 10:24:27;;;;;;;7.55;6.25;;;;;;;;;;5109468;28;20228;-18
2022/04/14 10:26:54;;;;;;;10.25;7.15;;;;;;;;;;5106827;28;20231;-18
2022/04/14 10:29:22;;;;;;;9.32;6.95;;;;;;;;;;5107426;28;20228;-18
2022/04/14 10:31:53;;;;;;;8.80;6.97;;;;;;;;;;5114158;28;20217;-18
2022/04/14 10:34:23;;;;;;;11.45;7.22;;;;;;;;;;5112415;28;20228;-18
2022/04/14 10:36:50;;;;;;;8.93;6.22;;;;;;;;;;5114004;28;20230;-18
2022/04/14 10:39:18;;;;;;;8.25;6.38;;;;;;;;;;5110040;28;20223;-18
2022/04/14 10:41:46;;;;;;;6.70;5.95;;;;;;;;;;5113706;28;20699;-18
2022/04/14 10:44:14;;;;;;;8.82;6.45;;;;;;;;;;5112494;28;20232;-18
2022/04/14 10:46:46;;;;;;;7.07;5.68;;;;;;;;;;5107251;28;20272;-18
2022/04/14 10:49:13;;;;;;;7.35;5.97;;;;;;;;;;5114078;28;20228;-18
2022/04/14 10:51:43;;;;;;;8.57;5.60;;;;;;;;;;5111129;28;20228;-18
2022/04/14 10:54:10;;;;;;;6.57;5.22;;;;;;;;;;5113841;28;20224;-18
2022/04/14 10:56:44;;;;;;;8.23;6.07;;;;;;;;;;5109591;28;20239;-19
2022/04/14 10:59:12;;;;;;;6.40;5.22;;;;;;;;;;5113139;28;20236;-19
2022/04/14 11:01:55;;;;;;;6.60;5.32;;;;;;;;;;5109344;28;20232;-18
2022/04/14 11:04:23;;;;;;;5.95;4.72;;;;;;;;;;5108218;27;20232;-18
2022/04/14 11:06:52;;;;;;;7.10;4.82;;;;;;;;;;5109046;28;20224;-18
2022/04/14 11:09:38;;;;;;;6.75;4.72;;;;;;;;;;5113475;28;20236;-18
2022/04/14 11:12:09;;;;;;;6.43;4.63;;;;;;;;;;5106258;28;20277;-18
2022/04/14 11:14:36;;;;;;;5.90;4.70;;;;;;;;;;5113591;28;20228;-18
2022/04/14 11:17:04;;;;;;;5.82;4.80;;;;;;;;;;5109096;28;20236;-18
2022/04/14 11:19:31;;;;;;;5.75;4.40;;;;;;;;;;5109592;28;20247;-19
2022/04/14 11:22:04;;;;;;;6.57;4.13;;;;;;;;;;5111248;28;20236;-19
2022/04/14 11:24:41;;;;;;;6.72;4.65;;;;;;;;;;5112901;28;20216;-19
2022/04/14 11:27:14;;;;;;;5.80;3.88;;;;;;;;;;5108921;28;20237;-18
2022/04/14 11:29:42;;;;;;;7.40;4.38;;;;;;;;;;5108815;28;20671;-18
2022/04/14 11:32:10;;;;;;;4.60;3.75;;;;;;;;;;5109057;28;20228;-18
2022/04/14 11:35:07;;;;;;;5.60;4.53;;;;;;;;;;5110983;28;20239;-18
2022/04/14 11:37:40;;;;;;;5.72;3.95;;;;;;;;;;5106314;28;20763;-18
2022/04/14 11:40:10;;;;;;;4.55;3.80;;;;;;;;;;5108052;28;20267;-18
2022/04/14 11:42:38;;;;;;;6.45;3.92;;;;;;;;;;5113441;28;20278;-18
2022/04/14 11:45:05;;;;;;;5.30;3.70;;;;;;;;;;5112674;28;20242;-18
2022/04/14 11:47:35;;;;;;;6.05;3.45;;;;;;;;;;5103216;28;20231;-18
2022/04/14 11:50:02;;;;;;;6.13;3.92;;;;;;;;;;5112486;28;20224;-18
2022/04/14 11:52:29;;;;;;;5.18;4.03;;;;;;;;;;5107577;28;20239;-18
2022/04/14 11:54:58;;;;;;;7.38;3.58;;;;;;;;;;5112932;28;20224;-18
2022/04/14 11:57:29;;;;;;;3.90;2.90;;;;;;;;;;5112576;28;20232;-19
2022/04/14 12:00:09;;;;;;;5.43;3.55;;;;;;;;;;5107468;28;20238;-18
2022/04/14 12:02:37;;;;;;;4.22;3.53;;;;;;;;;;5100728;28;20219;-18
2022/04/14 12:05:05;;;;;;;4.07;3.25;;;;;;;;;;5112985;28;21053;-18
2022/04/14 12:07:34;;;;;;;4.22;2.90;;;;;;;;;;5112296;28;20231;-19
2022/04/14 12:10:03;;;;;;;3.78;2.90;;;;;;;;;;5100773;28;20280;-18
2022/04/14 12:12:31;;;;;;;4.32;2.95;;;;;;;;;;5100378;28;20232;-18
2022/04/14 12:14:58;;;;;;;4.57;2.90;;;;;;;;;;5111965;28;20232;-18
2022/04/14 12:17:26;;;;;;;3.85;2.58;;;;;;;;;;5112442;28;20236;-18
2022/04/14 12:19:53;;;;;;;5.25;2.95;;;;;;;;;;5112515;28;20264;-18
2022/04/14 12:22:21;;;;;;;4.28;2.90;;;;;;;;;;5107133;28;20250;-18
2022/04/14 12:24:48;;;;;;;4.35;3.03;;;;;;;;;;5107804;28;20236;-18
2022/04/14 12:27:19;;;;;;;3.40;2.63;;;;;;;;;;5112625;28;20261;-18
2022/04/14 12:29:46;;;;;;;3.05;2.53;;;;;;;;;;5112533;28;20227;-18
2022/04/14 12:32:15;;;;;;;3.40;2.50;;;;;;;;;;5107853;28;20224;-18
2022/04/14 12:34:43;;;;;;;4.35;2.40;;;;;;;;;;5103186;28;20259;-18
2022/04/14 12:37:13;;;;;;;3.60;2.60;;;;;;;;;;5112057;28;20239;-19
2022/04/14 12:39:53;;;;;;;3.38;2.50;;;;;;;;;;5111596;28;20251;-18
2022/04/14 12:42:22;;;;;;;4.00;2.75;;;;;;;;;;5111932;28;20736;-18
2022/04/14 12:44:49;;;;;;;3.90;2.83;;;;;;;;;;5111951;28;20235;-18
2022/04/14 12:47:17;;;;;;;3.75;2.45;;;;;;;;;;5103973;28;20227;-18
2022/04/14 12:49:45;;;;;;;3.10;2.28;;;;;;;;;;5112094;28;20699;-18
2022/04/14 12:52:12;;;;;;;2.88;2.30;;;;;;;;;;5112314;28;20235;-18
2022/04/14 12:54:45;;;;;;;3.38;2.13;;;;;;;;;;5111234;28;20834;-18
2022/04/14 12:57:17;;;;;;;3.38;2.35;;;;;;;;;;5107271;28;20236;-18
2022/04/14 13:02:38;;;;;;;3.15;2.65;;;;;;;;;;5137043;27;21140;-17
2022/04/14 13:05:06;;;;;;;2.95;2.17;;;;;;;;;;5140978;27;20306;-17
2022/04/14 13:07:44;;;;;;;3.75;2.20;;;;;;;;;;5137246;27;20227;-16
2022/04/14 13:10:11;;;;;;;3.08;2.33;;;;;;;;;;5135323;27;20235;-17
2022/04/14 13:12:39;;;;;;;2.42;2.17;;;;;;;;;;5138197;27;20227;-17
2022/04/14 13:15:07;;;;;;;3.00;2.20;;;;;;;;;;5140891;27;20702;-17
2022/04/14 13:17:37;;;;;;;2.53;1.90;;;;;;;;;;5140859;27;20231;-17
2022/04/14 13:20:09;;;;;;;2.53;2.03;;;;;;;;;;5133472;27;20234;-17
2022/04/14 13:22:37;;;;;;;2.20;2.00;;;;;;;;;;5138388;27;20250;-17
2022/04/14 13:25:04;;;;;;;3.35;2.20;;;;;;;;;;5137006;27;20227;-17
2022/04/14 13:27:32;;;;;;;2.40;1.90;;;;;;;;;;5141231;27;20677;-17
2022/04/14 13:30:00;;;;;;;2.60;2.05;;;;;;;;;;5131912;27;20253;-17
2022/04/14 13:32:27;;;;;;;3.17;2.05;;;;;;;;;;5136722;27;20227;-16
2022/04/14 13:34:55;;;;;;;3.22;2.20;;;;;;;;;;5136057;27;20237;-16
2022/04/14 13:37:24;;;;;;;2.92;2.10;;;;;;;;;;5139958;27;20239;-17
2022/04/14 13:39:51;;;;;;;1.95;1.75;;;;;;;;;;5138185;27;20227;-17
2022/04/14 13:42:19;;;;;;;3.13;2.25;;;;;;;;;;5134235;27;20251;-17
2022/04/14 13:44:46;;;;;;;3.00;1.90;;;;;;;;;;5136872;27;20231;-17
2022/04/14 13:47:13;;;;;;;2.65;2.00;;;;;;;;;;5135968;27;20365;-17
2022/04/14 13:49:41;;;;;;;2.13;1.75;;;;;;;;;;5138029;27;20690;-17
2022/04/14 13:52:08;;;;;;;2.42;2.17;;;;;;;;;;5138651;27;20219;-17
2022/04/14 13:54:37;;;;;;;4.55;2.20;;;;;;;;;;5137285;27;20232;-17
2022/04/14 13:57:04;;;;;;;1.80;1.70;;;;;;;;;;5135566;27;20698;-17
2022/04/14 13:59:31;;;;;;;2.40;1.98;;;;;;;;;;5132906;27;20223;-16
2022/04/14 14:01:59;;;;;;;2.67;2.08;;;;;;;;;;5136333;27;20247;-17
2022/04/14 14:04:26;;;;;;;2.00;1.77;;;;;;;;;;5137870;27;20234;-16
2022/04/14 14:06:53;;;;;;;1.98;1.75;;;;;;;;;;5137095;27;21106;-16
2022/04/14 14:09:21;;;;;;;2.70;1.90;;;;;;;;;;5139255;27;20228;-17
2022/04/14 14:11:49;;;;;;;1.90;1.65;;;;;;;;;;5137152;27;20713;-17
2022/04/14 14:14:17;;;;;;;1.60;1.50;;;;;;;;;;5122699;27;20227;-17
2022/04/14 14:16:44;;;;;;;1.98;1.77;;;;;;;;;;5122223;27;20234;-17
2022/04/14 14:19:12;;;;;;;1.67;1.48;;;;;;;;;;5121947;27;20235;-17
2022/04/14 14:21:39;;;;;;;2.40;1.60;;;;;;;;;;5125577;27;20239;-17
2022/04/14 14:24:06;;;;;;;2.10;1.85;;;;;;;;;;5122643;27;20331;-17
2022/04/14 14:26:34;;;;;;;2.55;2.10;;;;;;;;;;5119454;27;20230;-17
2022/04/14 14:29:02;;;;;;;2.25;1.90;;;;;;;;;;5119716;27;20231;-17
2022/04/14 14:31:30;;;;;;;3.08;2.22;;;;;;;;;;5117560;27;20219;-17
2022/04/14 14:33:57;;;;;;;2.38;1.73;;;;;;;;;;5122640;27;20692;-16
2022/04/14 14:36:24;;;;;;;1.85;1.55;;;;;;;;;;5118346;27;20232;-17
2022/04/14 14:38:52;;;;;;;2.58;1.95;;;;;;;;;;5124248;27;20259;-16
2022/04/14 14:41:22;;;;;;;2.95;1.73;;;;;;;;;;5123203;27;21083;-17
2022/04/14 14:43:51;;;;;;;2.30;1.67;;;;;;;;;;5124677;27;20235;-17